Time;durP1;ratioP1;P1;durP2;ratioP2;P2;SDS_P1;SDS_P2;PMS_P1;PMS_P2;Temp;Humidity;BMP_temperature;BMP_pressure;BME280_temperature;BME280_humidity;BME280_pressure;Samples;Min_cycle;Max_cycle;Signal;HPM_P1;HPM_P2
2024/01/25 00:01:49;;;;;;;27.83;6.73;;;9.40;99.90;;;;;;5082771;28;20447;-78
2024/01/25 00:04:16;;;;;;;25.77;7.20;;;9.40;99.90;;;;;;5082200;28;20458;-79
2024/01/25 00:06:44;;;;;;;25.00;6.80;;;9.40;99.90;;;;;;5078796;28;20855;-77
2024/01/25 00:09:10;;;;;;;31.60;6.50;;;9.40;99.90;;;;;;5081057;28;20454;-78
2024/01/25 00:11:37;;;;;;;24.07;6.70;;;9.40;99.90;;;;;;5086329;28;20462;-78
2024/01/25 00:14:04;;;;;;;23.00;7.10;;;9.40;99.90;;;;;;5080767;28;20542;-77
2024/01/25 00:16:31;;;;;;;25.20;7.03;;;9.40;99.90;;;;;;5079206;28;20447;-79
2024/01/25 00:18:58;;;;;;;24.07;6.87;;;9.30;99.90;;;;;;5078997;28;20490;-79
2024/01/25 00:21:24;;;;;;;24.33;6.47;;;9.30;99.90;;;;;;5082989;28;20977;-79
2024/01/25 00:23:53;;;;;;;33.23;7.13;;;9.30;99.90;;;;;;5079128;28;20454;-78
2024/01/25 00:26:19;;;;;;;23.30;5.47;;;9.20;99.90;;;;;;5079711;28;20456;-78
2024/01/25 00:28:46;;;;;;;26.87;6.00;;;9.20;99.90;;;;;;5082927;28;20835;-78
2024/01/25 00:31:13;;;;;;;29.57;6.77;;;9.20;99.90;;;;;;5081333;28;20476;-77
2024/01/25 00:33:40;;;;;;;21.87;6.50;;;9.30;99.90;;;;;;5081196;28;20548;-79
2024/01/25 00:36:08;;;;;;;31.93;6.37;;;9.30;99.90;;;;;;5078940;28;20450;-79
2024/01/25 00:38:35;;;;;;;19.73;6.27;;;9.30;99.90;;;;;;5071439;28;20474;-78
2024/01/25 00:41:05;;;;;;;21.10;6.13;;;9.20;99.90;;;;;;5079678;28;20458;-77
2024/01/25 00:43:32;;;;;;;29.50;6.87;;;9.20;99.90;;;;;;5081586;28;20454;-79
2024/01/25 00:45:59;;;;;;;25.90;7.03;;;9.10;99.90;;;;;;5079858;28;20481;-78
2024/01/25 00:48:26;;;;;;;20.03;7.77;;;9.10;99.90;;;;;;5080000;28;20474;-78
2024/01/25 00:50:54;;;;;;;37.00;9.03;;;9.10;99.90;;;;;;5078365;28;20544;-79
2024/01/25 00:53:21;;;;;;;25.70;6.70;;;9.10;99.90;;;;;;5081871;28;20548;-78
2024/01/25 00:55:48;;;;;;;23.87;6.20;;;9.10;99.90;;;;;;5082593;28;20460;-78
2024/01/25 00:58:17;;;;;;;23.93;6.30;;;9.10;99.90;;;;;;5081986;28;20833;-78
2024/01/25 01:00:44;;;;;;;34.37;7.30;;;9.10;99.90;;;;;;5085100;28;20558;-78
2024/01/25 01:03:12;;;;;;;18.93;5.83;;;9.00;99.90;;;;;;5080284;28;20546;-79
2024/01/25 01:05:40;;;;;;;24.80;6.33;;;9.00;99.90;;;;;;5080127;28;20456;-79
2024/01/25 01:08:08;;;;;;;24.93;6.13;;;8.90;99.90;;;;;;5080116;28;20808;-79
2024/01/25 01:10:34;;;;;;;28.50;6.60;;;8.80;99.90;;;;;;5080961;28;20897;-79
2024/01/25 01:13:01;;;;;;;25.17;5.43;;;8.80;99.90;;;;;;5082165;28;20540;-78
2024/01/25 01:15:30;;;;;;;49.90;7.77;;;8.80;99.90;;;;;;5080718;28;20558;-78
2024/01/25 01:17:56;;;;;;;20.97;6.03;;;8.70;99.90;;;;;;5080182;28;20481;-79
2024/01/25 01:20:24;;;;;;;28.40;7.07;;;8.70;99.90;;;;;;5080532;28;20500;-78
2024/01/25 01:22:51;;;;;;;31.23;5.90;;;8.70;99.90;;;;;;5079054;28;20875;-78
2024/01/25 01:25:18;;;;;;;27.63;6.77;;;8.60;99.90;;;;;;5079274;28;20493;-78
2024/01/25 01:27:45;;;;;;;19.57;5.53;;;8.60;99.90;;;;;;5086360;28;20490;-79
2024/01/25 01:30:12;;;;;;;32.77;6.53;;;8.60;99.90;;;;;;5078711;28;20525;-78
2024/01/25 01:32:41;;;;;;;27.10;7.30;;;8.70;99.90;;;;;;5079103;28;20547;-79
2024/01/25 01:35:08;;;;;;;24.27;6.90;;;8.70;99.90;;;;;;5078365;28;20460;-77
2024/01/25 01:37:35;;;;;;;25.43;6.30;;;8.70;99.90;;;;;;5077345;28;20560;-77
2024/01/25 01:40:01;;;;;;;24.57;6.70;;;8.70;99.90;;;;;;5078368;28;20994;-78
2024/01/25 01:42:28;;;;;;;26.47;6.63;;;8.80;99.90;;;;;;5083090;28;20461;-78
2024/01/25 01:44:55;;;;;;;28.47;6.80;;;8.80;99.90;;;;;;5086996;28;20514;-78
2024/01/25 01:47:22;;;;;;;24.27;5.87;;;8.90;99.90;;;;;;5077529;28;20479;-78
2024/01/25 01:49:50;;;;;;;24.30;6.60;;;8.90;99.90;;;;;;5076848;28;20537;-78
2024/01/25 01:52:18;;;;;;;28.10;7.07;;;8.90;99.90;;;;;;5078135;28;20458;-78
2024/01/25 01:54:46;;;;;;;22.73;6.90;;;9.00;99.90;;;;;;5077589;28;20474;-79
2024/01/25 01:57:14;;;;;;;30.47;7.57;;;8.90;99.90;;;;;;5079778;28;20560;-78
2024/01/25 01:59:41;;;;;;;27.93;6.60;;;9.00;99.90;;;;;;5077057;28;21005;-78
2024/01/25 02:02:08;;;;;;;24.67;6.07;;;9.00;99.90;;;;;;5076240;28;20540;-79
2024/01/25 02:04:35;;;;;;;33.23;7.30;;;9.00;99.90;;;;;;5076099;28;20842;-78
2024/01/25 02:07:03;;;;;;;29.93;7.30;;;9.00;99.90;;;;;;5075965;28;20473;-77
2024/01/25 02:09:30;;;;;;;20.13;6.23;;;9.10;99.90;;;;;;5075761;28;20466;-79
2024/01/25 02:12:01;;;;;;;25.10;7.07;;;9.00;99.90;;;;;;5081458;28;20461;-78
2024/01/25 02:14:28;;;;;;;22.20;5.73;;;9.00;99.90;;;;;;5068841;28;20457;-78
2024/01/25 02:16:55;;;;;;;27.70;6.60;;;9.00;99.90;;;;;;5076611;28;20496;-78
2024/01/25 02:19:22;;;;;;;16.77;6.17;;;9.00;99.90;;;;;;5083253;28;20497;-79
2024/01/25 02:21:52;;;;;;;34.13;7.43;;;9.00;99.90;;;;;;5078369;28;20454;-77
2024/01/25 02:24:20;;;;;;;21.57;7.00;;;9.00;99.90;;;;;;5075263;28;20456;-78
2024/01/25 02:26:47;;;;;;;23.80;6.33;;;8.90;99.90;;;;;;5076315;28;20481;-78
2024/01/25 02:29:13;;;;;;;25.97;7.60;;;8.90;99.90;;;;;;5076221;28;20546;-77
2024/01/25 02:31:40;;;;;;;22.57;6.00;;;8.80;99.90;;;;;;5073491;28;20455;-78
2024/01/25 02:34:07;;;;;;;22.47;6.13;;;8.80;99.90;;;;;;5082205;28;20464;-78
2024/01/25 02:36:34;;;;;;;31.20;6.13;;;8.80;99.90;;;;;;5076827;28;20509;-78
2024/01/25 02:39:01;;;;;;;26.50;9.23;;;8.70;99.90;;;;;;5073907;28;20453;-77
2024/01/25 02:41:31;;;;;;;26.70;6.37;;;8.70;99.90;;;;;;5075056;28;20458;-78
2024/01/25 02:43:58;;;;;;;26.30;6.50;;;8.70;99.90;;;;;;5082464;28;20910;-78
2024/01/25 02:46:25;;;;;;;18.83;5.67;;;8.60;99.90;;;;;;5084453;28;20546;-78
2024/01/25 02:48:52;;;;;;;18.60;6.27;;;8.50;99.90;;;;;;5084252;28;20464;-78
2024/01/25 02:51:19;;;;;;;24.67;5.30;;;8.40;99.90;;;;;;5086038;28;20544;-78
2024/01/25 02:53:45;;;;;;;28.17;5.97;;;8.30;99.90;;;;;;5082927;28;20447;-78
2024/01/25 02:56:12;;;;;;;24.83;6.07;;;8.20;99.90;;;;;;5078874;28;20442;-78
2024/01/25 02:58:40;;;;;;;21.43;5.70;;;8.10;99.90;;;;;;5077784;28;20480;-78
2024/01/25 03:01:07;;;;;;;27.17;5.50;;;8.00;99.90;;;;;;5074341;28;20567;-78
2024/01/25 03:03:34;;;;;;;22.20;5.73;;;7.90;99.90;;;;;;5078483;28;20471;-78
2024/01/25 03:06:01;;;;;;;20.33;5.00;;;7.80;99.90;;;;;;5082665;28;20461;-78
2024/01/25 03:08:28;;;;;;;28.13;6.57;;;7.70;99.90;;;;;;5074846;28;20473;-79
2024/01/25 03:10:56;;;;;;;34.80;7.10;;;7.70;99.90;;;;;;5075345;28;20518;-78
2024/01/25 03:13:23;;;;;;;25.70;6.23;;;7.70;99.90;;;;;;5076219;28;20518;-79
2024/01/25 03:15:51;;;;;;;29.00;7.17;;;7.70;99.90;;;;;;5076967;28;20960;-77
2024/01/25 03:18:17;;;;;;;16.27;4.77;;;7.70;99.90;;;;;;5085692;28;20491;-77
2024/01/25 03:20:44;;;;;;;24.20;5.90;;;7.70;99.90;;;;;;5078523;28;20496;-79
2024/01/25 03:23:11;;;;;;;25.70;6.00;;;7.70;99.90;;;;;;5078148;28;20981;-78
2024/01/25 03:25:38;;;;;;;25.90;5.10;;;7.70;99.90;;;;;;5077319;28;20452;-78
2024/01/25 03:28:06;;;;;;;37.00;5.93;;;7.60;99.90;;;;;;5078058;28;21022;-78
2024/01/25 03:30:33;;;;;;;20.17;5.03;;;7.60;99.90;;;;;;5077550;28;20839;-77
2024/01/25 03:33:01;;;;;;;20.10;6.03;;;7.50;99.90;;;;;;5077222;28;20464;-77
2024/01/25 03:35:28;;;;;;;19.33;5.57;;;7.50;99.90;;;;;;5077853;28;20831;-78
2024/01/25 03:37:54;;;;;;;26.83;7.43;;;7.40;99.90;;;;;;5089919;28;20548;-78
2024/01/25 03:40:21;;;;;;;29.23;6.47;;;7.40;99.90;;;;;;5077553;28;20483;-78
2024/01/25 03:42:48;;;;;;;15.00;4.40;;;7.30;99.90;;;;;;5079565;28;20538;-78
2024/01/25 03:45:15;;;;;;;20.80;5.80;;;7.30;99.90;;;;;;5077767;28;20458;-78
2024/01/25 03:47:41;;;;;;;21.43;6.47;;;7.20;99.90;;;;;;5076872;28;20474;-78
2024/01/25 03:50:10;;;;;;;18.50;6.03;;;7.20;99.90;;;;;;5077169;28;20532;-78
2024/01/25 03:52:37;;;;;;;18.47;5.43;;;7.10;99.90;;;;;;5077088;28;20453;-77
2024/01/25 03:55:04;;;;;;;19.33;4.80;;;7.10;99.90;;;;;;5077331;28;20473;-78
2024/01/25 03:57:31;;;;;;;23.60;5.40;;;7.00;99.90;;;;;;5085589;28;20521;-78
2024/01/25 03:59:58;;;;;;;19.97;5.80;;;6.90;99.90;;;;;;5078338;28;20490;-78
2024/01/25 04:02:24;;;;;;;26.77;6.50;;;6.80;99.90;;;;;;5069361;28;20467;-78
2024/01/25 04:04:51;;;;;;;32.47;7.33;;;6.80;99.90;;;;;;5076915;28;20455;-78
2024/01/25 04:07:19;;;;;;;25.40;6.90;;;6.80;99.90;;;;;;5077242;28;20483;-78
2024/01/25 04:09:46;;;;;;;19.63;5.20;;;6.80;99.90;;;;;;5078681;28;20824;-78
2024/01/25 04:12:13;;;;;;;21.37;4.80;;;6.80;99.90;;;;;;5084104;28;20457;-77
2024/01/25 04:14:43;;;;;;;23.43;5.77;;;6.80;99.90;;;;;;5077533;28;20458;-75
2024/01/25 04:17:09;;;;;;;24.13;5.87;;;6.70;99.90;;;;;;5077066;28;20471;-78
2024/01/25 04:19:37;;;;;;;16.23;4.93;;;6.70;99.90;;;;;;5077040;28;20551;-77
2024/01/25 04:22:04;;;;;;;13.57;4.43;;;6.60;99.90;;;;;;5077566;28;20543;-79
2024/01/25 04:24:32;;;;;;;22.73;5.23;;;6.50;99.90;;;;;;5078005;28;20808;-79
2024/01/25 04:26:59;;;;;;;23.23;4.73;;;6.50;99.90;;;;;;5077867;28;20493;-78
2024/01/25 04:29:26;;;;;;;19.43;4.37;;;6.50;99.90;;;;;;5077639;28;20452;-79
2024/01/25 04:31:53;;;;;;;21.00;5.40;;;6.40;99.90;;;;;;5080533;28;20455;-78
2024/01/25 04:34:19;;;;;;;18.83;5.07;;;6.30;99.90;;;;;;5077301;28;20459;-78
2024/01/25 04:36:46;;;;;;;17.73;5.23;;;6.30;99.90;;;;;;5077098;28;20557;-79
2024/01/25 04:39:14;;;;;;;17.10;4.70;;;6.30;99.90;;;;;;5077613;28;20451;-78
2024/01/25 04:41:42;;;;;;;29.67;6.07;;;6.20;99.90;;;;;;5082193;28;20706;-79
2024/01/25 04:44:08;;;;;;;26.47;5.17;;;6.20;99.90;;;;;;5081423;28;20462;-79
2024/01/25 04:46:37;;;;;;;20.20;4.30;;;6.20;99.90;;;;;;5080962;28;20464;-78
2024/01/25 04:49:04;;;;;;;19.50;4.60;;;6.10;99.90;;;;;;5083244;28;20467;-79
2024/01/25 04:51:30;;;;;;;13.83;4.33;;;6.10;99.90;;;;;;5077755;28;20455;-79
2024/01/25 04:53:57;;;;;;;20.83;5.17;;;6.00;99.90;;;;;;5078168;28;20478;-78
2024/01/25 04:56:24;;;;;;;13.30;4.00;;;6.10;99.90;;;;;;5077830;28;20821;-78
2024/01/25 04:58:52;;;;;;;17.47;4.80;;;6.00;99.90;;;;;;5078235;28;20451;-78
2024/01/25 05:01:19;;;;;;;17.00;4.47;;;6.00;99.90;;;;;;5077559;28;20558;-79
2024/01/25 05:03:46;;;;;;;24.37;5.73;;;5.90;99.90;;;;;;5077342;28;20957;-78
2024/01/25 05:06:13;;;;;;;16.80;4.83;;;5.80;99.90;;;;;;5075651;28;20454;-77
2024/01/25 05:08:42;;;;;;;27.37;5.70;;;5.80;99.90;;;;;;5075275;28;20824;-78
2024/01/25 05:11:09;;;;;;;23.87;5.80;;;5.80;99.90;;;;;;5077856;28;20462;-78
2024/01/25 05:13:36;;;;;;;26.73;6.17;;;5.80;99.90;;;;;;5075464;28;20867;-78
2024/01/25 05:16:05;;;;;;;25.93;6.10;;;5.80;99.90;;;;;;5077252;28;20455;-79
2024/01/25 05:18:31;;;;;;;22.80;4.77;;;5.80;99.90;;;;;;5077483;28;20476;-77
2024/01/25 05:20:58;;;;;;;19.23;5.80;;;5.80;99.90;;;;;;5074599;28;20482;-77
2024/01/25 05:23:25;;;;;;;21.90;5.90;;;5.80;99.90;;;;;;5074778;28;20470;-78
2024/01/25 05:25:52;;;;;;;19.90;4.70;;;5.80;99.90;;;;;;5064795;28;20982;-76
2024/01/25 05:28:19;;;;;;;11.20;4.27;;;5.80;99.90;;;;;;5074546;28;20475;-78
2024/01/25 05:30:46;;;;;;;19.03;5.53;;;5.70;99.90;;;;;;5074635;28;20447;-78
2024/01/25 05:33:14;;;;;;;17.97;4.30;;;5.70;99.90;;;;;;5075161;28;20450;-77
2024/01/25 05:35:40;;;;;;;17.03;4.30;;;5.60;99.90;;;;;;5076179;28;20972;-78
2024/01/25 05:38:07;;;;;;;12.30;4.63;;;5.60;99.90;;;;;;5075414;28;20482;-79
2024/01/25 05:40:34;;;;;;;15.50;5.30;;;5.60;99.90;;;;;;5075902;28;20486;-79
2024/01/25 05:43:01;;;;;;;24.90;4.60;;;5.50;99.90;;;;;;5077580;28;20459;-77
2024/01/25 05:45:28;;;;;;;24.03;4.67;;;5.40;99.90;;;;;;5078648;28;20451;-77
2024/01/25 05:47:55;;;;;;;10.47;4.23;;;5.50;99.90;;;;;;5082922;28;20481;-77
2024/01/25 05:50:23;;;;;;;20.13;6.27;;;5.40;99.90;;;;;;5080871;28;20551;-77
2024/01/25 05:52:49;;;;;;;23.13;5.80;;;5.40;99.90;;;;;;5085774;28;20955;-77
2024/01/25 05:55:16;;;;;;;18.37;4.40;;;5.30;99.90;;;;;;5083403;28;20460;-78
2024/01/25 05:57:44;;;;;;;23.60;5.13;;;5.30;99.90;;;;;;5082383;28;20510;-78
2024/01/25 06:00:15;;;;;;;13.50;4.43;;;5.30;99.90;;;;;;5077702;28;20878;-76
2024/01/25 06:02:43;;;;;;;20.10;5.63;;;5.20;99.90;;;;;;5075580;28;20451;-77
2024/01/25 06:05:10;;;;;;;13.00;4.03;;;5.20;99.90;;;;;;5074786;28;20462;-78
2024/01/25 06:07:38;;;;;;;18.47;5.00;;;5.10;99.90;;;;;;5074750;28;20477;-77
2024/01/25 06:10:05;;;;;;;19.43;6.00;;;5.10;99.90;;;;;;5074179;28;20461;-78
2024/01/25 06:12:32;;;;;;;28.93;8.70;;;5.10;99.90;;;;;;5076033;28;20542;-78
2024/01/25 06:14:59;;;;;;;34.77;13.20;;;5.10;99.90;;;;;;5074266;28;20833;-77
2024/01/25 06:17:26;;;;;;;41.63;14.87;;;5.10;99.90;;;;;;5074717;28;20472;-78
2024/01/25 06:19:52;;;;;;;41.10;14.10;;;5.00;99.90;;;;;;5073905;28;20451;-77
2024/01/25 06:22:19;;;;;;;51.17;17.53;;;5.00;99.90;;;;;;5076053;28;20495;-78
2024/01/25 06:24:50;;;;;;;38.53;13.90;;;4.90;99.90;;;;;;5083032;28;20460;-78
2024/01/25 06:27:16;;;;;;;36.83;9.63;;;4.90;99.90;;;;;;5073954;28;20486;-79
2024/01/25 06:29:43;;;;;;;34.33;10.57;;;4.90;99.90;;;;;;5071723;28;20539;-78
2024/01/25 06:32:11;;;;;;;38.67;10.90;;;4.90;99.90;;;;;;5067848;28;20455;-79
2024/01/25 06:34:38;;;;;;;30.83;8.20;;;4.80;99.90;;;;;;5068626;28;20452;-78
2024/01/25 06:37:05;;;;;;;24.40;7.57;;;4.80;99.90;;;;;;5063902;28;20478;-78
2024/01/25 06:39:32;;;;;;;30.10;6.90;;;4.70;99.90;;;;;;5073024;28;20458;-78
2024/01/25 06:42:00;;;;;;;22.10;6.97;;;4.70;99.90;;;;;;5073753;28;20486;-78
2024/01/25 06:44:29;;;;;;;25.63;6.70;;;4.70;99.90;;;;;;5071605;28;20499;-79
2024/01/25 06:46:56;;;;;;;19.00;6.53;;;4.70;99.90;;;;;;5076032;28;20486;-79
2024/01/25 06:49:22;;;;;;;26.47;6.50;;;4.60;99.90;;;;;;5075543;28;20458;-79
2024/01/25 06:51:49;;;;;;;15.23;6.47;;;4.60;99.90;;;;;;5088528;28;20510;-81
2024/01/25 06:54:16;;;;;;;33.60;6.70;;;4.60;99.90;;;;;;5084519;28;20454;-80
2024/01/25 06:56:43;;;;;;;20.83;5.47;;;4.60;99.90;;;;;;5080925;28;20953;-80
2024/01/25 06:59:11;;;;;;;15.80;5.53;;;4.60;99.90;;;;;;5072990;28;20456;-78
2024/01/25 07:01:38;;;;;;;23.90;4.80;;;4.60;99.90;;;;;;5079753;28;20562;-78
2024/01/25 07:04:05;;;;;;;16.60;5.23;;;4.60;99.90;;;;;;5089218;28;20450;-78
2024/01/25 07:06:32;;;;;;;26.73;5.27;;;4.60;99.90;;;;;;5082307;28;20542;-80
2024/01/25 07:08:58;;;;;;;25.40;5.43;;;4.60;99.90;;;;;;5085314;28;20459;-79
2024/01/25 07:11:25;;;;;;;26.40;5.03;;;4.60;99.90;;;;;;5089212;28;20474;-78
2024/01/25 07:13:52;;;;;;;23.20;6.30;;;4.60;99.90;;;;;;5095536;28;20450;-80
2024/01/25 07:16:21;;;;;;;23.10;5.30;;;4.60;99.90;;;;;;5084204;28;20522;-80
2024/01/25 07:18:48;;;;;;;19.70;5.73;;;4.60;99.90;;;;;;5088621;28;20477;-79
2024/01/25 07:21:15;;;;;;;20.40;6.80;;;4.60;99.90;;;;;;5082055;28;20864;-79
2024/01/25 07:23:42;;;;;;;17.80;5.37;;;4.70;99.90;;;;;;5082302;28;20899;-80
2024/01/25 07:26:08;;;;;;;31.17;7.57;;;4.70;99.90;;;;;;5082076;28;20466;-80
2024/01/25 07:28:35;;;;;;;27.40;6.63;;;4.70;99.90;;;;;;5082107;28;20542;-80
2024/01/25 07:31:02;;;;;;;19.43;5.60;;;4.80;99.90;;;;;;5080054;28;20456;-79
2024/01/25 07:33:30;;;;;;;20.93;6.27;;;4.90;99.90;;;;;;5065330;28;20966;-80
2024/01/25 07:35:58;;;;;;;31.13;6.97;;;4.90;99.90;;;;;;5085173;28;20485;-79
2024/01/25 07:38:25;;;;;;;30.80;6.63;;;5.00;99.90;;;;;;5083866;28;20585;-79
2024/01/25 07:40:52;;;;;;;23.67;6.57;;;5.10;99.90;;;;;;5086337;28;20450;-80
2024/01/25 07:43:19;;;;;;;33.67;8.53;;;5.20;99.90;;;;;;5088065;28;20459;-80
2024/01/25 07:45:46;;;;;;;31.77;6.57;;;5.30;99.90;;;;;;5099196;28;20548;-80
2024/01/25 07:48:13;;;;;;;27.67;7.13;;;5.30;99.90;;;;;;5085167;28;20979;-79
2024/01/25 07:50:41;;;;;;;19.47;5.67;;;5.40;99.90;;;;;;5089551;28;20526;-80
2024/01/25 07:53:08;;;;;;;25.40;7.23;;;5.50;99.90;;;;;;5093993;28;20537;-80
2024/01/25 07:55:34;;;;;;;37.13;8.60;;;5.50;99.90;;;;;;5083981;28;20869;-78
2024/01/25 07:58:01;;;;;;;23.20;7.70;;;5.60;99.90;;;;;;5083377;28;20497;-82
2024/01/25 08:00:28;;;;;;;28.13;7.40;;;5.60;99.90;;;;;;5090308;28;20461;-80
2024/01/25 08:02:55;;;;;;;33.07;7.93;;;5.60;99.90;;;;;;5084137;28;20940;-80
2024/01/25 08:05:22;;;;;;;27.60;7.70;;;5.70;99.90;;;;;;5073752;28;20977;-82
2024/01/25 08:07:50;;;;;;;23.13;9.67;;;5.80;99.90;;;;;;5084363;28;20474;-79
2024/01/25 08:10:17;;;;;;;23.20;7.33;;;5.90;99.90;;;;;;5085301;28;20516;-82
2024/01/25 08:12:47;;;;;;;33.40;7.17;;;6.60;99.90;;;;;;5087964;28;20450;-81
2024/01/25 08:15:14;;;;;;;25.57;7.97;;;6.10;99.90;;;;;;5086538;28;20490;-80
2024/01/25 08:17:41;;;;;;;29.97;8.70;;;6.00;99.90;;;;;;5085613;28;20494;-82
2024/01/25 08:20:09;;;;;;;22.80;6.60;;;6.10;99.90;;;;;;5085508;28;20477;-81
2024/01/25 08:22:36;;;;;;;34.73;8.93;;;6.20;99.90;;;;;;5078225;28;20895;-81
2024/01/25 08:25:05;;;;;;;24.43;8.47;;;6.20;99.90;;;;;;5084096;28;20453;-80
2024/01/25 08:27:32;;;;;;;28.40;9.07;;;6.20;99.90;;;;;;5091226;28;20482;-80
2024/01/25 08:29:58;;;;;;;34.80;8.37;;;6.20;99.90;;;;;;5084924;28;20454;-80
2024/01/25 08:32:25;;;;;;;29.37;8.53;;;6.20;99.90;;;;;;5084703;28;20457;-80
2024/01/25 08:34:52;;;;;;;30.93;9.33;;;6.20;99.90;;;;;;5084008;28;21035;-81
2024/01/25 08:37:19;;;;;;;30.13;8.90;;;6.30;99.90;;;;;;5082677;28;20487;-80
2024/01/25 08:39:49;;;;;;;25.50;9.30;;;6.40;99.90;;;;;;5083511;28;20547;-81
2024/01/25 08:42:17;;;;;;;37.60;8.83;;;6.30;99.90;;;;;;5089236;28;20477;-81
2024/01/25 08:44:48;;;;;;;31.50;8.77;;;6.40;99.90;;;;;;5082654;28;20895;-80
2024/01/25 08:47:16;;;;;;;25.97;7.63;;;6.30;99.90;;;;;;5085199;28;20484;-81
2024/01/25 08:49:43;;;;;;;33.97;9.87;;;6.50;99.90;;;;;;5094303;28;20463;-81
2024/01/25 08:52:10;;;;;;;33.20;9.30;;;6.60;99.90;;;;;;5093546;28;20453;-81
2024/01/25 08:54:37;;;;;;;141.73;55.10;;;6.70;99.90;;;;;;5094487;28;20453;-80
2024/01/25 08:57:04;;;;;;;35.67;10.40;;;6.90;99.90;;;;;;5096491;28;20459;-81
2024/01/25 08:59:35;;;;;;;25.97;7.83;;;6.80;99.90;;;;;;5089983;28;20936;-81
2024/01/25 09:02:02;;;;;;;32.40;9.03;;;6.90;99.90;;;;;;5070983;28;20489;-80
2024/01/25 09:04:28;;;;;;;27.20;8.60;;;7.00;99.90;;;;;;5074142;28;20447;-81
2024/01/25 09:06:55;;;;;;;30.40;7.93;;;7.10;99.90;;;;;;5080511;28;20530;-81
2024/01/25 09:09:22;;;;;;;33.80;10.07;;;7.10;99.90;;;;;;5089440;28;20457;-81
2024/01/25 09:11:49;;;;;;;31.13;10.10;;;7.00;99.90;;;;;;5080729;28;20988;-80
2024/01/25 09:14:16;;;;;;;30.47;12.70;;;7.00;99.90;;;;;;5080925;28;20479;-81
2024/01/25 09:16:44;;;;;;;34.83;11.13;;;7.00;99.90;;;;;;5082784;28;20910;-80
2024/01/25 09:19:11;;;;;;;38.83;11.27;;;7.10;99.90;;;;;;5084817;28;20458;-80
2024/01/25 09:21:39;;;;;;;34.00;11.73;;;7.00;99.90;;;;;;5083765;28;20490;-81
2024/01/25 09:24:07;;;;;;;38.37;12.43;;;7.20;99.90;;;;;;5087048;28;20511;-81
2024/01/25 09:26:33;;;;;;;35.23;13.27;;;7.40;99.90;;;;;;5081093;28;20464;-81
2024/01/25 09:29:00;;;;;;;31.87;11.27;;;7.40;99.90;;;;;;5081814;28;20455;-80
2024/01/25 09:31:27;;;;;;;30.73;12.67;;;7.60;99.90;;;;;;5081400;28;20457;-80
2024/01/25 09:33:55;;;;;;;30.93;13.40;;;7.80;99.90;;;;;;5082005;28;20834;-79
2024/01/25 09:36:22;;;;;;;32.20;13.47;;;8.00;99.90;;;;;;5081411;28;20471;-79
2024/01/25 09:38:49;;;;;;;36.30;13.53;;;8.10;99.90;;;;;;5080686;28;20470;-79
2024/01/25 09:41:15;;;;;;;28.30;13.40;;;8.20;99.90;;;;;;5081024;28;20488;-81
2024/01/25 09:43:43;;;;;;;32.83;13.23;;;8.30;99.90;;;;;;5080828;28;20459;-81
2024/01/25 09:46:14;;;;;;;38.43;14.43;;;8.30;99.90;;;;;;5079323;28;20451;-79
2024/01/25 09:48:43;;;;;;;47.77;15.90;;;8.30;99.90;;;;;;5081001;28;20503;-80
2024/01/25 09:51:12;;;;;;;44.20;14.83;;;8.10;99.90;;;;;;5081553;28;20953;-80
2024/01/25 09:53:40;;;;;;;37.63;13.00;;;8.30;99.90;;;;;;5081708;28;20452;-79
2024/01/25 09:56:09;;;;;;;41.43;13.97;;;8.50;99.90;;;;;;5080748;28;20674;-80
2024/01/25 09:58:39;;;;;;;28.90;14.03;;;8.80;99.90;;;;;;5076967;28;20493;-80
2024/01/25 10:01:09;;;;;;;38.93;15.30;;;8.90;99.90;;;;;;5078806;28;20462;-81
2024/01/25 10:03:36;;;;;;;33.50;15.70;;;8.80;99.90;;;;;;5076634;28;20487;-78
2024/01/25 10:06:04;;;;;;;39.77;16.40;;;8.90;99.90;;;;;;5078427;28;20549;-78
2024/01/25 10:08:32;;;;;;;44.43;19.40;;;8.90;99.90;;;;;;5075397;28;20524;-80
2024/01/25 10:10:59;;;;;;;35.17;17.53;;;8.90;99.90;;;;;;5079434;28;20513;-78
2024/01/25 10:13:27;;;;;;;42.37;15.10;;;9.00;99.90;;;;;;5081118;28;20469;-79
2024/01/25 10:15:54;;;;;;;40.83;15.17;;;9.20;99.90;;;;;;5081669;28;20462;-79
2024/01/25 10:18:21;;;;;;;34.57;16.10;;;9.20;99.90;;;;;;5081922;28;20629;-79
2024/01/25 10:20:48;;;;;;;38.97;14.80;;;9.20;99.90;;;;;;5086449;28;20479;-79
2024/01/25 10:23:15;;;;;;;40.10;16.00;;;9.30;99.90;;;;;;5084597;28;20516;-79
2024/01/25 10:25:44;;;;;;;37.90;16.13;;;9.20;99.90;;;;;;5079781;28;20461;-81
2024/01/25 10:28:11;;;;;;;42.73;18.13;;;9.20;99.90;;;;;;5071961;28;20494;-81
2024/01/25 10:30:38;;;;;;;43.33;17.70;;;9.20;99.90;;;;;;5082977;28;20518;-79
2024/01/25 10:33:06;;;;;;;42.47;16.77;;;9.10;99.90;;;;;;5083764;28;20462;-79
2024/01/25 10:35:33;;;;;;;37.53;16.13;;;9.20;99.90;;;;;;5078597;28;20489;-80
2024/01/25 10:38:00;;;;;;;34.40;16.63;;;9.30;99.90;;;;;;5076846;28;20550;-79
2024/01/25 10:40:28;;;;;;;43.00;16.33;;;9.10;99.90;;;;;;5076265;28;20461;-81
2024/01/25 10:42:57;;;;;;;49.90;16.83;;;9.00;99.90;;;;;;5077221;28;20576;-80
2024/01/25 10:45:24;;;;;;;26.77;13.97;;;8.90;99.90;;;;;;5080145;28;20472;-79
2024/01/25 10:47:51;;;;;;;42.07;15.90;;;8.90;99.90;;;;;;5072946;28;21412;-80
2024/01/25 10:50:18;;;;;;;46.07;17.47;;;8.90;99.90;;;;;;5072365;28;20514;-81
2024/01/25 10:52:45;;;;;;;37.53;15.90;;;9.20;99.90;;;;;;5077189;28;20448;-80
2024/01/25 10:55:13;;;;;;;26.20;14.87;;;9.40;99.90;;;;;;5065374;28;20469;-80
2024/01/25 10:57:42;;;;;;;37.37;13.60;;;9.70;99.90;;;;;;5078117;28;20550;-81
2024/01/25 11:00:14;;;;;;;38.90;16.30;;;9.80;99.90;;;;;;5070522;28;20515;-80
2024/01/25 11:02:42;;;;;;;46.00;17.40;;;9.70;99.90;;;;;;5071296;28;20487;-79
2024/01/25 11:05:12;;;;;;;36.80;14.27;;;9.60;99.90;;;;;;5074854;28;20466;-79
2024/01/25 11:07:43;;;;;;;32.60;14.30;;;10.00;99.90;;;;;;5079349;28;20910;-80
2024/01/25 11:10:15;;;;;;;39.33;13.63;;;10.50;99.90;;;;;;5076077;28;21291;-81
2024/01/25 11:12:52;;;;;;;27.07;11.90;;;10.60;99.90;;;;;;5073437;28;20446;-80
2024/01/25 11:15:23;;;;;;;28.03;12.00;;;10.70;99.90;;;;;;5081148;28;20987;-81
2024/01/25 11:17:54;;;;;;;25.80;12.30;;;11.00;99.90;;;;;;5075269;28;20476;-80
2024/01/25 11:20:24;;;;;;;34.53;12.30;;;11.30;99.90;;;;;;5079423;28;20475;-81
2024/01/25 11:22:57;;;;;;;39.33;13.83;;;11.50;99.90;;;;;;5057773;28;20489;-78
2024/01/25 11:25:25;;;;;;;36.40;11.30;;;11.50;99.90;;;;;;5068085;28;20458;-80
2024/01/25 11:27:52;;;;;;;30.97;12.70;;;11.60;99.90;;;;;;5068749;28;20485;-80
2024/01/25 11:30:21;;;;;;;27.63;10.57;;;11.50;99.90;;;;;;5063622;28;20514;-80
2024/01/25 11:32:50;;;;;;;28.13;11.60;;;11.50;99.90;;;;;;5081157;28;20519;-78
2024/01/25 11:35:17;;;;;;;35.77;11.63;;;11.40;99.90;;;;;;5076674;28;20448;-79
2024/01/25 11:37:48;;;;;;;25.53;9.73;;;11.90;99.90;;;;;;5069854;28;20481;-81
2024/01/25 11:40:15;;;;;;;33.60;9.40;;;12.50;99.90;;;;;;5081845;28;20469;-80
2024/01/25 11:42:44;;;;;;;28.30;7.87;;;12.70;99.90;;;;;;5072984;28;20856;-80
2024/01/25 11:45:16;;;;;;;28.23;8.40;;;12.90;99.90;;;;;;5070960;28;20525;-77
2024/01/25 11:51:10;;;;;;;21.73;8.33;;;12.50;99.90;;;;;;5039725;28;20428;-79
2024/01/25 11:53:37;;;;;;;19.80;6.83;;;12.50;99.90;;;;;;5082647;28;20457;-79
2024/01/25 11:56:07;;;;;;;27.27;7.57;;;12.80;99.90;;;;;;5067421;28;20495;-79
2024/01/25 11:58:34;;;;;;;20.70;7.27;;;12.60;99.90;;;;;;5076252;28;20514;-79
2024/01/25 12:01:03;;;;;;;20.73;7.70;;;12.60;99.90;;;;;;5070922;28;20466;-80
2024/01/25 12:03:30;;;;;;;27.20;7.47;;;12.60;99.90;;;;;;5077114;28;20715;-79
2024/01/25 12:06:00;;;;;;;16.07;5.57;;;12.30;99.90;;;;;;5053616;28;20463;-77
2024/01/25 12:08:28;;;;;;;26.70;6.10;;;12.20;99.90;;;;;;5153975;22;20511;-79
2024/01/25 12:11:14;;;;;;;23.67;6.70;;;12.00;99.90;;;;;;5030526;28;20648;-79
2024/01/25 12:13:43;;;;;;;29.27;8.17;;;11.70;99.90;;;;;;5036647;28;20974;-80
2024/01/25 12:16:13;;;;;;;28.23;6.60;;;11.50;99.90;;;;;;5053774;28;20518;-77
2024/01/25 12:18:44;;;;;;;23.40;6.50;;;11.50;99.90;;;;;;5118995;22;20512;-78
2024/01/25 12:21:11;;;;;;;22.77;5.80;;;11.60;99.90;;;;;;5075978;28;20551;-79
2024/01/25 12:23:41;;;;;;;18.30;5.43;;;11.60;99.90;;;;;;5074059;28;20483;-80
2024/01/25 12:26:09;;;;;;;17.30;5.70;;;11.70;99.90;;;;;;5061175;28;20469;-80
2024/01/25 12:28:36;;;;;;;25.73;6.10;;;11.90;99.90;;;;;;5059847;28;20480;-78
2024/01/25 12:31:05;;;;;;;23.07;7.77;;;12.00;99.90;;;;;;5066158;28;20531;-81
2024/01/25 12:33:32;;;;;;;26.70;6.20;;;11.90;99.90;;;;;;5061111;28;20595;-79
2024/01/25 12:35:59;;;;;;;20.47;5.70;;;11.90;99.90;;;;;;5078594;28;20486;-80
2024/01/25 12:38:27;;;;;;;23.10;6.20;;;11.80;99.90;;;;;;5078745;28;21124;-79
2024/01/25 12:40:55;;;;;;;27.10;6.70;;;11.90;99.90;;;;;;5085299;28;20479;-79
2024/01/25 12:43:22;;;;;;;23.37;7.83;;;11.80;99.90;;;;;;5082362;28;20758;-80
2024/01/25 12:45:49;;;;;;;21.47;6.00;;;11.50;99.90;;;;;;5077060;28;20483;-79
2024/01/25 12:48:16;;;;;;;27.83;9.07;;;11.50;99.90;;;;;;5080836;28;20464;-79